createdAt,value
2023-01-29T00:00:39.570Z,0.9
2023-01-29T00:05:39.601Z,0.9
2023-01-29T00:10:39.664Z,0.9
2023-01-29T00:15:39.563Z,0.9
2023-01-29T00:20:39.641Z,0.9
2023-01-29T00:25:39.564Z,0.9
2023-01-29T00:30:39.516Z,0.9
2023-01-29T00:35:39.464Z,0.9
2023-01-29T00:40:39.447Z,0.9
2023-01-29T00:45:39.592Z,0.9
2023-01-29T00:50:39.490Z,0.9
2023-01-29T00:55:39.414Z,0.8
2023-01-29T01:00:39.385Z,0.8
2023-01-29T01:05:39.395Z,0.8
2023-01-29T01:10:39.391Z,0.8
2023-01-29T01:15:39.418Z,0.7
2023-01-29T01:20:39.308Z,0.7
2023-01-29T01:25:39.352Z,0.7
2023-01-29T01:30:39.368Z,0.7
2023-01-29T01:35:39.271Z,0.7
2023-01-29T01:40:39.248Z,0.7
2023-01-29T01:45:39.274Z,0.7
2023-01-29T01:50:39.221Z,0.6
2023-01-29T01:55:39.217Z,0.6
2023-01-29T02:00:39.184Z,0.6
2023-01-29T02:05:39.169Z,0.6
2023-01-29T02:10:39.149Z,0.6
2023-01-29T02:15:39.144Z,0.6
2023-01-29T02:20:39.154Z,0.6
2023-01-29T02:25:39.102Z,0.6
2023-01-29T02:30:39.218Z,0.6
2023-01-29T02:35:39.164Z,0.6
2023-01-29T02:40:39.066Z,0.6
2023-01-29T02:45:39.043Z,0.6
2023-01-29T02:50:39.044Z,0.6
2023-01-29T02:55:39.041Z,0.5
2023-01-29T03:00:39.053Z,0.5
2023-01-29T03:05:38.982Z,0.6
2023-01-29T03:10:38.960Z,0.5
2023-01-29T03:15:38.983Z,0.5
2023-01-29T03:20:38.933Z,0.5
2023-01-29T03:25:38.907Z,0.5
2023-01-29T03:30:38.899Z,0.5
2023-01-29T03:35:38.943Z,0.5
2023-01-29T03:40:38.863Z,0.5
2023-01-29T03:45:38.844Z,0.5
2023-01-29T03:50:38.836Z,0.5
2023-01-29T03:55:38.815Z,0.4
2023-01-29T04:00:38.798Z,0.4
2023-01-29T04:05:38.782Z,0.4
2023-01-29T04:10:38.765Z,0.4
2023-01-29T04:15:38.743Z,0.4
2023-01-29T04:20:38.723Z,0.4
2023-01-29T04:25:38.716Z,0.3
2023-01-29T04:30:38.709Z,0.3
2023-01-29T04:35:38.683Z,0.3
2023-01-29T04:40:38.663Z,0.3
2023-01-29T04:45:38.703Z,0.3
2023-01-29T04:50:38.635Z,0.2
2023-01-29T04:55:38.617Z,0.2
2023-01-29T05:00:38.599Z,0.2
2023-01-29T05:05:38.673Z,0.2
2023-01-29T05:10:38.619Z,0.2
2023-01-29T05:15:38.668Z,0.2
2023-01-29T05:20:38.539Z,0.1
2023-01-29T05:25:38.679Z,0.1
2023-01-29T05:30:38.519Z,0.1
2023-01-29T05:35:38.488Z,0
2023-01-29T05:40:38.484Z,0.1
2023-01-29T05:45:38.461Z,0
2023-01-29T05:50:38.441Z,0
2023-01-29T05:55:38.428Z,0
2023-01-29T06:00:38.442Z,0
2023-01-29T06:05:38.396Z,0
2023-01-29T06:10:38.409Z,-0.1
2023-01-29T06:15:38.364Z,-0.1
2023-01-29T06:20:38.363Z,-0.1
2023-01-29T06:25:38.368Z,-0.1
2023-01-29T06:30:38.333Z,-0.1
2023-01-29T06:35:38.343Z,-0.1
2023-01-29T06:40:38.295Z,-0.1
2023-01-29T06:45:38.268Z,-0.1
2023-01-29T06:50:38.247Z,-0.1
2023-01-29T06:55:38.228Z,-0.2
2023-01-29T07:00:38.372Z,-0.2
2023-01-29T07:05:38.203Z,-0.2
2023-01-29T07:10:38.265Z,-0.2
2023-01-29T07:15:38.195Z,-0.2
2023-01-29T07:20:38.176Z,-0.2
2023-01-29T07:25:38.143Z,-0.2
2023-01-29T07:30:38.123Z,-0.1
2023-01-29T07:35:38.100Z,-0.1
2023-01-29T07:40:38.093Z,-0.1
2023-01-29T07:45:38.088Z,-0.1
2023-01-29T07:50:38.058Z,-0.1
2023-01-29T07:55:38.124Z,-0.1
2023-01-29T08:00:38.028Z,0
2023-01-29T08:05:38.103Z,0.1
2023-01-29T08:10:38.167Z,0.1
2023-01-29T08:15:38.177Z,0.1
2023-01-29T08:20:38.126Z,0.2
2023-01-29T08:25:38.108Z,0.2
2023-01-29T08:30:38.094Z,0.3
2023-01-29T08:35:38.100Z,0.3
2023-01-29T08:40:38.078Z,0.4
2023-01-29T08:45:37.911Z,0.4
2023-01-29T08:50:38.040Z,0.4
2023-01-29T08:55:38.032Z,0.5
2023-01-29T09:00:37.869Z,0.5
2023-01-29T09:05:38.057Z,0.5
2023-01-29T09:10:37.957Z,0.6
2023-01-29T09:15:37.953Z,0.7
2023-01-29T09:20:37.935Z,0.7
2023-01-29T09:25:37.902Z,0.9
2023-01-29T09:30:37.908Z,1
2023-01-29T09:35:37.925Z,1.1
2023-01-29T09:40:37.848Z,1.3
2023-01-29T09:45:37.799Z,1.4
2023-01-29T09:50:37.833Z,1.4
2023-01-29T09:55:37.764Z,1.5
2023-01-29T10:00:37.823Z,1.6
2023-01-29T10:05:37.729Z,1.8
2023-01-29T10:10:37.790Z,1.9
2023-01-29T10:15:37.733Z,2
2023-01-29T10:20:37.689Z,2.1
2023-01-29T10:25:37.708Z,2.2
2023-01-29T10:30:37.682Z,2.5
2023-01-29T10:35:37.601Z,2.5
2023-01-29T10:40:37.499Z,2.6
2023-01-29T10:45:37.490Z,2.6
2023-01-29T10:50:37.589Z,2.6
2023-01-29T10:55:37.535Z,2.6
2023-01-29T11:00:37.502Z,2.7
2023-01-29T11:05:37.636Z,2.7
2023-01-29T11:10:37.399Z,2.8
2023-01-29T11:15:37.529Z,2.9
2023-01-29T11:20:37.540Z,3.2
2023-01-29T11:25:37.588Z,3.3
2023-01-29T11:30:37.479Z,3.4
2023-01-29T11:35:37.438Z,3.5
2023-01-29T11:40:37.460Z,3.7
2023-01-29T11:45:37.380Z,3.7
2023-01-29T11:50:37.436Z,3.8
2023-01-29T11:55:37.346Z,3.9
2023-01-29T12:00:37.371Z,3.9
2023-01-29T12:05:37.375Z,4.1
2023-01-29T12:10:37.337Z,4
2023-01-29T12:15:37.344Z,4
2023-01-29T12:20:37.304Z,4
2023-01-29T12:25:37.168Z,3.9
2023-01-29T12:30:37.274Z,3.8
2023-01-29T12:35:37.121Z,3.8
2023-01-29T12:40:37.074Z,3.8
2023-01-29T12:45:37.099Z,3.8
2023-01-29T12:50:37.159Z,3.8
2023-01-29T12:55:37.029Z,3.8
2023-01-29T13:00:37.073Z,3.8
2023-01-29T13:05:37.040Z,3.8
2023-01-29T13:10:37.125Z,3.8
2023-01-29T13:15:37.017Z,3.6
2023-01-29T13:20:37.020Z,3.5
2023-01-29T13:25:36.946Z,3.5
2023-01-29T13:30:37.145Z,3.4
2023-01-29T13:35:37.045Z,3.4
2023-01-29T13:40:37.067Z,3.4
2023-01-29T13:45:36.963Z,3.4
2023-01-29T13:50:37.048Z,3.4
2023-01-29T13:55:37.018Z,3.4
2023-01-29T14:00:36.920Z,3.3
2023-01-29T14:05:36.923Z,3.2
2023-01-29T14:10:36.888Z,3.2
2023-01-29T14:15:36.954Z,3.2
2023-01-29T14:20:36.739Z,3.2
2023-01-29T14:25:36.856Z,3.2
2023-01-29T14:30:36.812Z,3.1
2023-01-29T14:35:36.685Z,3.1
2023-01-29T14:40:36.827Z,3.1
2023-01-29T14:45:36.771Z,3.2
2023-01-29T14:50:36.839Z,3.2
2023-01-29T14:55:36.818Z,3.1
2023-01-29T15:00:36.588Z,3.1
2023-01-29T15:05:36.568Z,3.1
2023-01-29T15:10:36.706Z,3
2023-01-29T15:15:36.545Z,2.9
2023-01-29T15:20:36.680Z,2.9
2023-01-29T15:25:36.496Z,2.8
2023-01-29T15:30:36.601Z,2.7
2023-01-29T15:35:36.591Z,2.5
2023-01-29T15:40:36.657Z,2.4
2023-01-29T15:45:36.593Z,2.3
2023-01-29T15:50:36.413Z,2.2
2023-01-29T15:55:36.563Z,2.1
2023-01-29T16:00:36.382Z,2
2023-01-29T16:05:36.485Z,1.9
2023-01-29T16:10:36.506Z,1.7
2023-01-29T16:15:36.514Z,1.6
2023-01-29T16:20:36.525Z,1.6
2023-01-29T16:25:36.481Z,1.6
2023-01-29T16:30:36.461Z,1.4
2023-01-29T16:35:36.476Z,1.4
2023-01-29T16:40:36.358Z,1.2
2023-01-29T16:45:36.378Z,1
2023-01-29T16:50:36.270Z,1
2023-01-29T16:55:36.188Z,1
2023-01-29T17:00:36.278Z,1
2023-01-29T17:05:36.158Z,0.9
2023-01-29T17:10:36.219Z,0.8
2023-01-29T17:15:36.311Z,0.8
2023-01-29T17:20:36.232Z,0.6
2023-01-29T17:25:36.274Z,0.6
2023-01-29T17:30:36.176Z,0.5
2023-01-29T17:35:36.245Z,0.4
2023-01-29T17:40:36.149Z,0.3
2023-01-29T17:45:36.043Z,0.1
2023-01-29T17:50:36.058Z,0
2023-01-29T17:55:36.005Z,-0.1
2023-01-29T18:00:36.039Z,-0.2
2023-01-29T18:05:36.047Z,-0.2
2023-01-29T18:10:36.037Z,-0.3
2023-01-29T18:15:36.118Z,-0.3
2023-01-29T18:20:36.118Z,-0.4
2023-01-29T18:25:36.104Z,-0.4
2023-01-29T18:30:35.963Z,-0.5
2023-01-29T18:35:36.062Z,-0.5
2023-01-29T18:40:36.009Z,-0.5
2023-01-29T18:45:36.100Z,-0.5
2023-01-29T18:50:35.908Z,-0.5
2023-01-29T18:55:35.881Z,-0.6
2023-01-29T19:00:35.966Z,-0.6
2023-01-29T19:05:35.887Z,-0.6
2023-01-29T19:10:35.828Z,-0.6
2023-01-29T19:15:35.757Z,-0.6
2023-01-29T19:20:35.790Z,-0.6
2023-01-29T19:25:35.716Z,-0.7
2023-01-29T19:30:35.765Z,-0.7
2023-01-29T19:35:35.895Z,-0.7
2023-01-29T19:40:35.826Z,-0.8
2023-01-29T19:45:35.656Z,-0.8
2023-01-29T19:50:35.673Z,-0.9
2023-01-29T19:55:35.802Z,-0.9
2023-01-29T20:00:35.705Z,-0.9
2023-01-29T20:05:35.776Z,-1
2023-01-29T20:10:35.703Z,-1
2023-01-29T20:15:35.570Z,-1.1
2023-01-29T20:20:35.549Z,-1.1
2023-01-29T20:25:35.543Z,-1.1
2023-01-29T20:30:35.689Z,-1.1
2023-01-29T20:35:35.510Z,-1.2
2023-01-29T20:40:35.521Z,-1.2
2023-01-29T20:45:35.493Z,-1.2
2023-01-29T20:50:35.511Z,-1.3
2023-01-29T20:55:35.569Z,-1.3
2023-01-29T21:00:35.479Z,-1.3
2023-01-29T21:05:35.439Z,-1.4
2023-01-29T21:10:35.400Z,-1.4
2023-01-29T21:15:35.404Z,-1.4
2023-01-29T21:20:35.381Z,-1.4
2023-01-29T21:25:35.347Z,-1.4
2023-01-29T21:30:35.359Z,-1.4
2023-01-29T21:35:35.332Z,-1.4
2023-01-29T21:40:35.376Z,-1.4
2023-01-29T21:45:35.306Z,-1.4
2023-01-29T21:50:35.282Z,-1.4
2023-01-29T21:55:35.261Z,-1.4
2023-01-29T22:00:35.265Z,-1.4
2023-01-29T22:05:35.223Z,-1.5
2023-01-29T22:10:35.244Z,-1.5
2023-01-29T22:15:35.295Z,-1.5
2023-01-29T22:20:35.330Z,-1.6
2023-01-29T22:25:35.270Z,-1.6
2023-01-29T22:30:35.194Z,-1.6
2023-01-29T22:35:35.129Z,-1.7
2023-01-29T22:40:35.174Z,-1.8
2023-01-29T22:45:35.124Z,-1.8
2023-01-29T22:50:35.087Z,-1.9
2023-01-29T22:55:35.082Z,-2
2023-01-29T23:00:35.112Z,-2
2023-01-29T23:05:35.169Z,-2
2023-01-29T23:10:35.031Z,-2
2023-01-29T23:15:35.124Z,-2
2023-01-29T23:20:35.112Z,-2
2023-01-29T23:25:34.983Z,-2
2023-01-29T23:30:34.966Z,-2
2023-01-29T23:35:34.951Z,-2
2023-01-29T23:40:34.956Z,-2
2023-01-29T23:45:34.972Z,-2
2023-01-29T23:50:34.909Z,-2
2023-01-29T23:55:34.886Z,-1.9
